Time;durP1;ratioP1;P1;durP2;ratioP2;P2;SDS_P1;SDS_P2;PMS_P1;PMS_P2;Temp;Humidity;BMP_temperature;BMP_pressure;BME280_temperature;BME280_humidity;BME280_pressure;Samples;Min_cycle;Max_cycle;Signal;HPM_P1;HPM_P2
2022/01/18 00:00:40;;;;;;;8.80;2.93;;;8.20;99.90;;;;;;5011704;28;22814;-66
2022/01/18 00:03:08;;;;;;;16.40;3.93;;;8.30;99.90;;;;;;5010017;28;21360;-66
2022/01/18 00:05:36;;;;;;;16.70;3.43;;;8.40;99.90;;;;;;5011665;28;20951;-66
2022/01/18 00:08:03;;;;;;;15.63;4.13;;;8.30;99.90;;;;;;5011361;28;20957;-65
2022/01/18 00:10:32;;;;;;;11.33;3.57;;;8.30;99.90;;;;;;5026625;28;20497;-66
2022/01/18 00:13:23;;;;;;;6.67;2.83;;;8.30;99.90;;;;;;5013324;28;20569;-66
2022/01/18 00:16:08;;;;;;;5.47;2.73;;;8.30;99.90;;;;;;5011002;28;20430;-66
2022/01/18 00:18:38;;;;;;;5.53;2.87;;;8.20;99.90;;;;;;5004061;28;20461;-66
2022/01/18 00:21:25;;;;;;;13.80;3.50;;;8.20;99.90;;;;;;5010933;28;20634;-66
2022/01/18 00:23:56;;;;;;;8.53;3.27;;;8.20;99.90;;;;;;5004570;28;20587;-66
2022/01/18 00:26:25;;;;;;;14.27;3.43;;;8.20;99.90;;;;;;5007187;28;20438;-65
2022/01/18 00:28:57;;;;;;;14.20;3.37;;;8.20;99.90;;;;;;5013074;28;20465;-68
2022/01/18 00:34:18;;;;;;;12.50;3.60;;;8.30;99.90;;;;;;5010250;28;20463;-66
2022/01/18 00:36:57;;;;;;;8.93;3.57;;;8.20;99.90;;;;;;5007501;28;20470;-66
2022/01/18 00:39:24;;;;;;;9.83;2.87;;;8.30;99.90;;;;;;5012342;28;20437;-66
2022/01/18 00:41:52;;;;;;;3.83;2.80;;;8.30;99.90;;;;;;5005168;28;20573;-66
2022/01/18 00:44:19;;;;;;;8.47;2.80;;;8.30;99.90;;;;;;5010149;28;20652;-66
2022/01/18 00:46:46;;;;;;;6.90;2.20;;;8.20;99.90;;;;;;5006099;28;20455;-66
2022/01/18 00:49:15;;;;;;;5.53;3.10;;;8.20;99.90;;;;;;5012262;28;20569;-66
2022/01/18 00:51:45;;;;;;;14.37;3.67;;;8.10;99.90;;;;;;5000015;28;20459;-66
2022/01/18 00:54:20;;;;;;;16.60;3.13;;;8.10;99.90;;;;;;5006398;28;21783;-66
2022/01/18 00:56:51;;;;;;;5.63;2.40;;;8.10;99.90;;;;;;4999835;28;20732;-66
2022/01/18 00:59:18;;;;;;;4.90;2.43;;;8.00;99.90;;;;;;5010686;28;20459;-67
2022/01/18 01:01:45;;;;;;;2.70;2.20;;;8.10;99.90;;;;;;5012969;28;20439;-66
2022/01/18 01:04:14;;;;;;;6.40;2.50;;;8.20;99.90;;;;;;5010027;28;20568;-66
2022/01/18 01:06:42;;;;;;;5.07;2.47;;;8.30;99.90;;;;;;4999965;28;20463;-66
2022/01/18 01:09:08;;;;;;;4.80;2.80;;;8.40;99.90;;;;;;5007450;28;20572;-66
2022/01/18 01:11:38;;;;;;;9.60;2.43;;;8.20;99.90;;;;;;5004357;28;20464;-67
2022/01/18 01:14:11;;;;;;;6.00;2.03;;;8.30;99.90;;;;;;5007763;28;20973;-66
2022/01/18 01:16:57;;;;;;;6.97;2.60;;;8.30;99.90;;;;;;5008482;28;20462;-67
2022/01/18 01:19:44;;;;;;;6.37;2.13;;;8.20;99.90;;;;;;5006011;28;20442;-66
2022/01/18 01:36:19;;;;;;;7.57;2.23;;;8.10;99.90;;;;;;5003108;28;20421;-66
2022/01/18 01:42:01;;;;;;;8.90;4.40;;;8.10;99.90;;;;;;4996772;28;20537;-65
2022/01/18 01:44:39;;;;;;;8.03;2.00;;;8.00;99.90;;;;;;4990211;28;20717;-66
2022/01/18 01:47:07;;;;;;;11.23;2.20;;;8.00;99.90;;;;;;4992343;28;21252;-67
2022/01/18 01:49:34;;;;;;;9.23;2.43;;;8.00;99.90;;;;;;5005411;28;20442;-67
2022/01/18 01:52:07;;;;;;;11.77;3.00;;;8.10;99.90;;;;;;5003938;28;20467;-67
2022/01/18 01:54:34;;;;;;;8.07;2.50;;;8.20;99.90;;;;;;5010319;28;20471;-67
2022/01/18 01:57:01;;;;;;;4.77;2.50;;;8.20;99.90;;;;;;4992797;28;20465;-66
2022/01/18 01:59:28;;;;;;;6.10;2.80;;;8.20;99.90;;;;;;5008059;28;20456;-67
2022/01/18 02:01:55;;;;;;;4.30;3.13;;;8.30;99.90;;;;;;5003900;28;20532;-66
2022/01/18 02:04:22;;;;;;;6.43;2.80;;;8.40;99.90;;;;;;5003912;28;20476;-66
2022/01/18 02:06:49;;;;;;;8.27;3.20;;;8.40;99.90;;;;;;5006582;28;20582;-66
2022/01/18 02:09:18;;;;;;;5.20;2.53;;;8.30;99.90;;;;;;5009956;28;21066;-68
2022/01/18 02:11:46;;;;;;;8.57;2.87;;;8.40;99.90;;;;;;5007997;28;20489;-68
2022/01/18 02:14:18;;;;;;;11.43;4.57;;;8.40;99.90;;;;;;5001809;28;20671;-66
2022/01/18 02:22:16;;;;;;;11.53;2.20;;;8.20;99.90;;;;;;5003597;28;20517;-66
2022/01/18 02:24:43;;;;;;;10.23;3.17;;;8.20;99.90;;;;;;4995436;28;21446;-66
2022/01/18 02:27:10;;;;;;;15.90;2.90;;;8.20;99.90;;;;;;4998385;28;20604;-66
2022/01/18 02:29:37;;;;;;;3.73;2.80;;;8.20;99.90;;;;;;5007601;28;23159;-66
2022/01/18 02:32:05;;;;;;;20.13;3.70;;;8.20;99.90;;;;;;5006460;28;20427;-67
2022/01/18 02:34:32;;;;;;;5.77;2.83;;;8.20;99.90;;;;;;5000161;28;21471;-66
2022/01/18 02:37:00;;;;;;;7.37;3.40;;;8.20;99.90;;;;;;5004626;28;20589;-66
2022/01/18 02:39:30;;;;;;;4.13;2.90;;;8.20;99.90;;;;;;4998990;28;22032;-66
2022/01/18 02:41:58;;;;;;;14.30;2.30;;;8.20;99.90;;;;;;5006405;28;20434;-66
2022/01/18 02:44:27;;;;;;;6.07;2.47;;;8.20;99.90;;;;;;4994133;28;20622;-67
2022/01/18 02:46:55;;;;;;;2.60;2.40;;;8.30;99.90;;;;;;4998108;28;20468;-66
2022/01/18 02:49:22;;;;;;;12.07;2.40;;;8.30;99.90;;;;;;5003325;28;20543;-67
2022/01/18 02:51:49;;;;;;;9.87;3.40;;;8.30;99.90;;;;;;5006451;28;20430;-67
2022/01/18 02:54:18;;;;;;;8.03;2.73;;;8.30;99.90;;;;;;5014096;28;20493;-67
2022/01/18 02:56:50;;;;;;;15.47;2.57;;;8.40;99.90;;;;;;5013773;28;21920;-65
2022/01/18 02:59:29;;;;;;;5.23;1.67;;;8.30;99.90;;;;;;5003683;28;20474;-67
2022/01/18 03:04:41;;;;;;;16.20;3.70;;;8.40;99.90;;;;;;5006520;28;20562;-66
2022/01/18 03:07:09;;;;;;;3.93;3.63;;;8.20;99.90;;;;;;4999816;28;20430;-68
2022/01/18 03:09:36;;;;;;;6.73;3.33;;;8.20;99.90;;;;;;4999488;28;20983;-65
2022/01/18 03:12:06;;;;;;;4.90;2.33;;;8.20;99.90;;;;;;5001773;28;20586;-67
2022/01/18 03:14:34;;;;;;;9.27;2.93;;;8.20;99.90;;;;;;5008400;28;23161;-69
2022/01/18 03:17:01;;;;;;;7.43;2.27;;;8.20;99.90;;;;;;5008910;28;20603;-66
2022/01/18 03:19:28;;;;;;;6.20;2.40;;;8.30;99.90;;;;;;4999379;28;20562;-66
2022/01/18 03:21:56;;;;;;;15.20;2.23;;;8.20;99.90;;;;;;5003131;28;20438;-65
2022/01/18 03:24:44;;;;;;;9.27;3.13;;;8.20;99.90;;;;;;4997424;28;21430;-65
2022/01/18 03:29:57;;;;;;;6.07;1.67;;;8.10;99.90;;;;;;4998807;28;22203;-67
2022/01/18 03:32:25;;;;;;;7.47;2.63;;;8.00;99.90;;;;;;4998204;28;20554;-68
2022/01/18 03:34:52;;;;;;;2.67;1.80;;;8.00;99.90;;;;;;4990908;28;21027;-66
2022/01/18 03:37:19;;;;;;;12.40;3.07;;;8.10;99.90;;;;;;4991202;28;20455;-65
2022/01/18 03:39:46;;;;;;;2.80;2.00;;;8.10;99.90;;;;;;4999201;28;21075;-66
2022/01/18 03:45:02;;;;;;;8.13;2.30;;;8.20;99.90;;;;;;4991185;28;21121;-67
2022/01/18 03:47:29;;;;;;;8.97;1.90;;;8.10;99.90;;;;;;5006428;28;20495;-66
2022/01/18 03:49:56;;;;;;;9.70;2.73;;;8.00;99.90;;;;;;4997325;28;22052;-66
2022/01/18 03:52:23;;;;;;;9.03;2.80;;;8.10;99.90;;;;;;4997990;28;20814;-65
2022/01/18 03:54:50;;;;;;;6.43;2.70;;;8.10;99.90;;;;;;5000645;28;20485;-66
2022/01/18 03:57:19;;;;;;;10.77;3.10;;;8.00;99.90;;;;;;4978547;28;20561;-66
2022/01/18 03:59:46;;;;;;;5.23;2.60;;;8.10;99.90;;;;;;4996945;28;20464;-66
2022/01/18 04:02:13;;;;;;;2.93;2.47;;;8.00;99.90;;;;;;4983339;28;20456;-65
2022/01/18 04:04:41;;;;;;;7.50;3.53;;;7.90;99.90;;;;;;4994819;28;20483;-66
2022/01/18 04:07:08;;;;;;;3.33;1.63;;;7.80;99.90;;;;;;4951545;28;22767;-66
2022/01/18 04:09:36;;;;;;;4.90;3.73;;;7.90;99.90;;;;;;4997044;28;20565;-66
2022/01/18 04:12:04;;;;;;;3.10;1.20;;;7.90;99.90;;;;;;4994162;28;20466;-66
2022/01/18 04:14:33;;;;;;;7.90;2.13;;;7.90;99.90;;;;;;4997330;28;20636;-67
2022/01/18 04:17:06;;;;;;;3.87;2.17;;;8.00;99.90;;;;;;5001938;28;20468;-66
2022/01/18 04:27:52;;;;;;;9.53;3.83;;;7.80;99.90;;;;;;4996438;28;21408;-67
2022/01/18 04:30:22;;;;;;;12.37;2.43;;;7.70;99.90;;;;;;4997497;28;20478;-68
2022/01/18 04:32:49;;;;;;;2.03;1.63;;;7.60;99.90;;;;;;4990151;28;20517;-68
2022/01/18 04:35:16;;;;;;;3.77;2.20;;;7.60;99.90;;;;;;4997583;28;20811;-68
2022/01/18 04:37:43;;;;;;;3.23;2.23;;;7.50;99.90;;;;;;4997147;28;20440;-67
2022/01/18 04:40:15;;;;;;;2.20;2.00;;;7.40;99.90;;;;;;5019965;28;20473;-67
2022/01/18 04:43:01;;;;;;;5.00;2.37;;;7.30;99.90;;;;;;5032575;28;20427;-68
2022/01/18 04:48:29;;;;;;;5.30;2.83;;;7.30;99.90;;;;;;5002138;28;20429;-67
2022/01/18 04:50:57;;;;;;;13.07;2.57;;;7.30;99.90;;;;;;4991896;28;20451;-65
2022/01/18 04:53:26;;;;;;;4.27;3.30;;;7.40;99.90;;;;;;4989944;28;20497;-65
2022/01/18 04:55:56;;;;;;;7.37;3.83;;;7.40;99.90;;;;;;5000363;28;22646;-65
2022/01/18 04:58:23;;;;;;;7.13;2.53;;;7.50;99.90;;;;;;4987499;28;20903;-66
2022/01/18 05:00:53;;;;;;;7.27;3.40;;;7.60;99.90;;;;;;4995618;28;20452;-66
2022/01/18 05:03:21;;;;;;;2.50;1.73;;;7.60;99.90;;;;;;4988780;28;20550;-66
2022/01/18 05:05:51;;;;;;;20.63;4.30;;;7.50;99.90;;;;;;4975952;28;20483;-66
2022/01/18 05:08:19;;;;;;;7.33;3.70;;;7.50;99.90;;;;;;4976570;28;20449;-66
2022/01/18 05:10:51;;;;;;;6.77;2.70;;;7.50;99.90;;;;;;5009968;28;20443;-67
2022/01/18 05:13:35;;;;;;;4.70;1.53;;;7.40;99.90;;;;;;5010776;28;20496;-66
2022/01/18 05:16:20;;;;;;;3.60;2.13;;;7.40;99.90;;;;;;5010729;28;22816;-66
2022/01/18 05:19:13;;;;;;;8.70;2.83;;;7.40;99.90;;;;;;5019203;28;20455;-66
2022/01/18 05:24:24;;;;;;;8.80;2.73;;;7.50;99.90;;;;;;4982754;28;20479;-67
2022/01/18 05:26:52;;;;;;;4.50;3.00;;;7.50;99.90;;;;;;5019142;28;20454;-67
2022/01/18 05:29:19;;;;;;;8.23;2.77;;;7.60;99.90;;;;;;5021429;28;21188;-69
2022/01/18 05:31:48;;;;;;;7.40;3.17;;;7.70;99.90;;;;;;5025808;28;20495;-68
2022/01/18 05:34:15;;;;;;;4.33;2.43;;;7.80;99.90;;;;;;5012348;28;20472;-67
2022/01/18 05:36:42;;;;;;;10.70;3.07;;;7.80;99.90;;;;;;5016663;28;21081;-67
2022/01/18 05:39:10;;;;;;;7.50;2.83;;;7.80;99.90;;;;;;5012597;28;20547;-68
2022/01/18 05:41:37;;;;;;;5.17;2.60;;;7.90;99.90;;;;;;5017927;28;20446;-68
2022/01/18 05:44:04;;;;;;;7.53;3.40;;;7.80;99.90;;;;;;5009801;28;20663;-68
2022/01/18 05:46:31;;;;;;;3.13;2.83;;;7.80;99.90;;;;;;5013950;28;20484;-68
2022/01/18 05:49:02;;;;;;;7.90;2.47;;;7.90;99.90;;;;;;5018438;28;20474;-68
2022/01/18 05:51:29;;;;;;;10.10;3.60;;;7.90;99.90;;;;;;5019046;28;21321;-67
2022/01/18 05:53:56;;;;;;;17.10;3.97;;;7.90;99.90;;;;;;5014404;28;20450;-65
2022/01/18 05:56:24;;;;;;;10.33;3.70;;;7.90;99.90;;;;;;5016166;28;20456;-66
2022/01/18 05:58:51;;;;;;;16.87;3.27;;;8.00;99.90;;;;;;5013414;28;20440;-67
2022/01/18 06:01:25;;;;;;;7.67;3.70;;;7.90;99.90;;;;;;5016382;28;20552;-65
2022/01/18 06:04:07;;;;;;;5.10;4.40;;;7.90;99.90;;;;;;5008877;28;20455;-66
2022/01/18 06:09:21;;;;;;;7.53;4.73;;;7.80;99.90;;;;;;5019035;28;21043;-66
2022/01/18 06:11:49;;;;;;;8.97;3.60;;;7.90;99.90;;;;;;5015741;28;20914;-66
2022/01/18 06:14:16;;;;;;;15.50;3.77;;;8.00;99.90;;;;;;5025992;28;20515;-67
2022/01/18 06:16:43;;;;;;;6.03;3.30;;;8.00;99.90;;;;;;5031978;28;20438;-66
2022/01/18 06:19:10;;;;;;;6.00;3.73;;;7.90;99.90;;;;;;5010583;28;20586;-66
2022/01/18 06:21:39;;;;;;;8.10;3.20;;;7.90;99.90;;;;;;5011066;28;20541;-66
2022/01/18 06:24:07;;;;;;;10.43;3.60;;;7.90;99.90;;;;;;5020212;28;20598;-67
2022/01/18 06:26:34;;;;;;;13.10;4.10;;;7.90;99.90;;;;;;5018159;28;20491;-67
2022/01/18 06:29:02;;;;;;;14.53;5.07;;;7.90;99.90;;;;;;5016927;28;20495;-66
2022/01/18 06:31:30;;;;;;;32.50;14.83;;;7.80;99.90;;;;;;5016069;28;20478;-66
2022/01/18 06:33:57;;;;;;;14.87;4.37;;;7.70;99.90;;;;;;5010227;28;21441;-66
2022/01/18 06:36:24;;;;;;;6.07;3.77;;;7.70;99.90;;;;;;5014287;28;20455;-66
2022/01/18 06:38:52;;;;;;;12.83;4.87;;;7.80;99.90;;;;;;5017970;28;20559;-67
2022/01/18 06:41:20;;;;;;;7.83;3.37;;;7.90;99.90;;;;;;5019764;28;20546;-66
2022/01/18 06:43:47;;;;;;;9.83;4.60;;;7.90;99.90;;;;;;5017964;28;20491;-66
2022/01/18 06:46:14;;;;;;;10.93;4.80;;;7.90;99.90;;;;;;5014707;28;21217;-66
2022/01/18 06:48:44;;;;;;;6.37;3.20;;;7.80;99.90;;;;;;5019166;28;20478;-67
2022/01/18 06:51:11;;;;;;;9.50;3.73;;;7.90;99.90;;;;;;5017454;28;20468;-67
2022/01/18 06:53:44;;;;;;;10.00;3.20;;;7.90;99.90;;;;;;5018712;28;20462;-66
2022/01/18 06:56:14;;;;;;;6.03;3.43;;;7.90;99.90;;;;;;5025924;28;20723;-67
2022/01/18 06:58:41;;;;;;;17.80;4.53;;;7.90;99.90;;;;;;5014064;28;20494;-65
2022/01/18 07:01:09;;;;;;;12.03;4.43;;;8.00;99.90;;;;;;5019356;28;20483;-65
2022/01/18 07:03:36;;;;;;;8.63;3.70;;;8.00;99.90;;;;;;5010761;28;20490;-64
2022/01/18 07:06:03;;;;;;;5.23;4.30;;;8.00;99.90;;;;;;5012080;28;20518;-66
2022/01/18 07:08:30;;;;;;;9.90;3.20;;;8.10;99.90;;;;;;5010381;28;20962;-66
2022/01/18 07:10:57;;;;;;;11.70;4.80;;;8.00;99.90;;;;;;5015179;28;20460;-66
2022/01/18 07:13:26;;;;;;;9.03;5.03;;;8.10;99.90;;;;;;5013165;28;20483;-67
2022/01/18 07:15:53;;;;;;;5.77;4.00;;;8.10;99.90;;;;;;5015322;28;20540;-66
2022/01/18 07:18:20;;;;;;;6.67;4.67;;;8.20;99.90;;;;;;5017625;28;21167;-65
2022/01/18 07:20:47;;;;;;;16.90;4.10;;;8.20;99.90;;;;;;5014217;28;20971;-66
2022/01/18 07:23:14;;;;;;;14.43;5.23;;;8.10;99.90;;;;;;5014806;28;21074;-66
2022/01/18 07:25:43;;;;;;;6.27;3.80;;;8.10;99.90;;;;;;5012969;28;20483;-66
2022/01/18 07:28:10;;;;;;;9.80;4.37;;;8.00;99.90;;;;;;5008346;28;20463;-68
2022/01/18 07:30:39;;;;;;;13.80;5.00;;;8.10;99.90;;;;;;5014036;28;21644;-66
2022/01/18 07:33:07;;;;;;;11.13;5.60;;;8.10;99.90;;;;;;5016089;28;20469;-65
2022/01/18 07:35:35;;;;;;;7.03;4.43;;;7.90;99.90;;;;;;5022033;28;20541;-65
2022/01/18 07:38:02;;;;;;;8.20;3.73;;;7.80;99.90;;;;;;5020536;28;20464;-68
2022/01/18 07:40:31;;;;;;;6.00;4.60;;;7.70;99.90;;;;;;5012149;28;20468;-67
2022/01/18 07:43:00;;;;;;;10.70;4.30;;;7.60;99.90;;;;;;5010161;28;20491;-66
2022/01/18 07:45:27;;;;;;;13.57;5.63;;;7.60;99.90;;;;;;5009572;28;20490;-67
2022/01/18 07:47:56;;;;;;;14.43;5.90;;;7.70;99.90;;;;;;5021586;28;20474;-66
2022/01/18 07:50:23;;;;;;;8.23;4.80;;;7.60;99.90;;;;;;5007080;28;20586;-65
2022/01/18 07:52:50;;;;;;;20.33;4.97;;;7.50;99.90;;;;;;5018317;28;20446;-67
2022/01/18 07:55:17;;;;;;;12.30;6.33;;;7.60;99.90;;;;;;5014317;28;20562;-67
2022/01/18 07:57:44;;;;;;;12.13;5.10;;;7.60;99.90;;;;;;5016006;28;20430;-66
2022/01/18 08:00:14;;;;;;;18.23;6.33;;;7.60;99.90;;;;;;5009131;28;20438;-66
2022/01/18 08:02:41;;;;;;;10.37;4.73;;;7.60;99.90;;;;;;5010882;28;20434;-66
2022/01/18 08:05:12;;;;;;;12.60;6.50;;;7.70;99.90;;;;;;5016833;28;20457;-67
2022/01/18 08:07:38;;;;;;;11.83;6.03;;;7.80;99.90;;;;;;5016655;28;21315;-67
2022/01/18 08:10:07;;;;;;;19.77;5.80;;;7.80;99.90;;;;;;5011485;28;20479;-66
2022/01/18 08:12:35;;;;;;;9.47;6.20;;;7.90;99.90;;;;;;5011551;28;21098;-67
2022/01/18 08:15:13;;;;;;;12.23;5.40;;;7.90;99.90;;;;;;5009711;28;20478;-66
2022/01/18 08:17:40;;;;;;;22.50;11.10;;;7.90;99.90;;;;;;5018180;28;20467;-65
2022/01/18 08:20:13;;;;;;;17.27;7.67;;;7.90;99.90;;;;;;5007740;28;20442;-66
2022/01/18 08:22:40;;;;;;;30.27;8.10;;;7.90;99.90;;;;;;5005783;28;20968;-67
2022/01/18 08:25:08;;;;;;;17.60;6.40;;;7.80;99.90;;;;;;5006396;28;21270;-66
2022/01/18 08:27:35;;;;;;;32.33;7.00;;;7.90;99.90;;;;;;5015962;28;20613;-67
2022/01/18 08:30:03;;;;;;;19.40;6.90;;;7.90;99.90;;;;;;5016261;28;20442;-67
2022/01/18 08:32:30;;;;;;;17.50;6.60;;;7.80;99.90;;;;;;5017593;28;20997;-67
2022/01/18 08:34:57;;;;;;;13.60;6.53;;;8.00;99.90;;;;;;5013978;28;20557;-66
2022/01/18 08:37:26;;;;;;;13.53;6.70;;;8.00;99.90;;;;;;5020864;28;20459;-67
2022/01/18 08:39:53;;;;;;;26.63;7.67;;;7.80;99.90;;;;;;5014692;28;20518;-66
2022/01/18 08:42:20;;;;;;;24.53;9.30;;;7.90;99.90;;;;;;5012334;28;20434;-67
2022/01/18 08:44:47;;;;;;;14.50;6.67;;;8.00;99.90;;;;;;5012770;28;20491;-67
2022/01/18 08:47:16;;;;;;;14.80;7.83;;;8.10;99.90;;;;;;5015074;28;20544;-66
2022/01/18 08:49:43;;;;;;;30.73;8.40;;;8.20;99.90;;;;;;5016774;28;20449;-67
2022/01/18 08:52:10;;;;;;;15.10;7.10;;;8.30;99.90;;;;;;5011911;28;20826;-67
2022/01/18 08:54:39;;;;;;;13.40;7.10;;;8.20;99.90;;;;;;5008145;28;20483;-67
2022/01/18 08:57:07;;;;;;;11.80;7.80;;;8.10;99.90;;;;;;5019484;28;21352;-66
2022/01/18 08:59:35;;;;;;;22.43;6.70;;;8.20;99.90;;;;;;5023674;28;20467;-66
2022/01/18 09:02:03;;;;;;;20.60;8.10;;;8.30;99.90;;;;;;5023328;28;20460;-67
2022/01/18 09:04:30;;;;;;;16.93;5.87;;;8.50;99.90;;;;;;5021308;28;20489;-66
2022/01/18 09:07:01;;;;;;;12.93;5.50;;;8.50;99.90;;;;;;5019542;28;20553;-67
2022/01/18 09:09:28;;;;;;;13.90;7.97;;;8.60;99.90;;;;;;5015761;28;20475;-68
2022/01/18 09:11:57;;;;;;;11.47;7.00;;;8.60;99.90;;;;;;5015398;28;20452;-67
2022/01/18 09:14:24;;;;;;;13.80;6.20;;;8.60;99.90;;;;;;5023993;28;20479;-67
2022/01/18 09:16:51;;;;;;;6.07;4.47;;;8.40;99.90;;;;;;5020628;28;20460;-67
2022/01/18 09:19:18;;;;;;;11.97;5.80;;;8.20;99.90;;;;;;5023635;28;22087;-66
2022/01/18 09:21:48;;;;;;;11.10;5.23;;;8.20;99.90;;;;;;5013652;28;20434;-66
2022/01/18 09:24:16;;;;;;;24.03;8.30;;;8.30;99.90;;;;;;5016350;28;20570;-66
2022/01/18 09:26:44;;;;;;;11.43;5.80;;;8.40;99.90;;;;;;5022104;28;20585;-66
2022/01/18 09:29:14;;;;;;;18.37;6.90;;;8.50;99.90;;;;;;5020367;28;20463;-66
2022/01/18 09:31:41;;;;;;;13.90;7.03;;;8.60;99.90;;;;;;5010055;28;20463;-66
2022/01/18 09:34:08;;;;;;;24.37;7.10;;;8.70;99.90;;;;;;5010595;28;21939;-66
2022/01/18 09:36:35;;;;;;;25.43;7.63;;;9.00;99.90;;;;;;5015292;28;20438;-66
2022/01/18 09:39:04;;;;;;;22.90;5.37;;;9.20;99.90;;;;;;5015394;28;20483;-67
2022/01/18 09:41:36;;;;;;;9.80;4.13;;;9.30;99.90;;;;;;5022186;28;20463;-67
2022/01/18 09:44:03;;;;;;;26.60;10.87;;;9.10;99.90;;;;;;5008576;28;20521;-67
2022/01/18 09:46:32;;;;;;;32.37;14.83;;;9.00;99.90;;;;;;5019140;28;20583;-67
2022/01/18 09:49:00;;;;;;;12.00;7.27;;;9.10;99.90;;;;;;5011637;28;20874;-66
2022/01/18 09:51:28;;;;;;;17.00;7.83;;;9.20;99.90;;;;;;5015995;28;20834;-67
2022/01/18 09:53:55;;;;;;;15.17;8.40;;;9.40;99.90;;;;;;5013666;28;20497;-66
2022/01/18 09:56:22;;;;;;;16.47;7.03;;;9.20;99.90;;;;;;5024577;28;20434;-67
2022/01/18 09:58:49;;;;;;;21.20;8.87;;;9.10;99.90;;;;;;5021208;28;20479;-67
2022/01/18 10:01:16;;;;;;;16.30;8.17;;;9.40;99.90;;;;;;5014856;28;20487;-66
2022/01/18 10:03:45;;;;;;;20.30;7.40;;;9.80;99.90;;;;;;5015634;28;20889;-66
2022/01/18 10:06:12;;;;;;;11.07;6.53;;;9.50;99.90;;;;;;5020860;28;20468;-66
2022/01/18 10:08:41;;;;;;;17.80;6.40;;;9.70;99.90;;;;;;5021328;28;20536;-66
2022/01/18 10:11:14;;;;;;;21.90;8.97;;;9.60;99.90;;;;;;5020353;28;20460;-66
2022/01/18 10:13:42;;;;;;;14.00;6.40;;;10.00;99.90;;;;;;5015783;28;20479;-66
2022/01/18 10:16:11;;;;;;;10.20;7.30;;;10.10;99.90;;;;;;5031195;28;20467;-67
2022/01/18 10:18:43;;;;;;;11.50;6.93;;;9.90;99.90;;;;;;5026629;28;20442;-67
2022/01/18 10:21:13;;;;;;;13.67;6.60;;;9.60;99.90;;;;;;5022725;28;20562;-67
2022/01/18 10:23:48;;;;;;;10.20;6.33;;;9.20;99.90;;;;;;5015207;28;20636;-67
2022/01/18 10:26:17;;;;;;;15.63;6.50;;;9.00;99.90;;;;;;5019089;28;20502;-69
2022/01/18 10:28:44;;;;;;;15.60;5.67;;;9.20;99.90;;;;;;5014927;28;20912;-67
2022/01/18 10:31:32;;;;;;;15.10;8.33;;;9.40;99.90;;;;;;5020923;28;20465;-68
2022/01/18 10:34:21;;;;;;;13.13;6.63;;;9.60;99.90;;;;;;5013381;28;21488;-67
2022/01/18 10:36:54;;;;;;;9.93;6.40;;;9.50;99.90;;;;;;5020494;28;20655;-67
2022/01/18 10:39:23;;;;;;;10.90;7.20;;;9.80;99.90;;;;;;5018831;28;20456;-67
2022/01/18 10:41:50;;;;;;;11.83;7.67;;;9.90;99.90;;;;;;5018026;28;21071;-67
2022/01/18 10:44:18;;;;;;;15.97;6.67;;;10.00;99.90;;;;;;5018839;28;20553;-66
2022/01/18 10:46:48;;;;;;;15.10;7.20;;;10.20;99.90;;;;;;5020404;28;21084;-67
2022/01/18 10:49:27;;;;;;;12.53;5.90;;;10.30;99.90;;;;;;5021505;28;20546;-67
2022/01/18 10:52:00;;;;;;;15.27;5.97;;;10.50;99.90;;;;;;5018796;28;20430;-68
2022/01/18 10:54:45;;;;;;;16.07;6.87;;;10.90;99.90;;;;;;5016514;28;20480;-68
2022/01/18 10:57:14;;;;;;;20.43;6.63;;;11.40;99.90;;;;;;5009899;28;20452;-67
2022/01/18 10:59:42;;;;;;;11.83;6.50;;;11.70;99.90;;;;;;5012104;28;20438;-67
2022/01/18 11:02:15;;;;;;;12.67;6.00;;;11.60;99.90;;;;;;5022310;28;20437;-67
2022/01/18 11:04:44;;;;;;;12.93;6.43;;;11.00;99.90;;;;;;5020816;28;20492;-67
2022/01/18 11:07:13;;;;;;;11.90;6.23;;;11.00;99.90;;;;;;5013686;28;20475;-67
2022/01/18 11:09:40;;;;;;;14.10;6.83;;;11.20;99.90;;;;;;5016069;28;20686;-66
2022/01/18 11:12:09;;;;;;;14.27;5.20;;;11.10;99.90;;;;;;5012068;28;20464;-66
2022/01/18 11:14:39;;;;;;;20.63;6.90;;;11.30;99.90;;;;;;5013678;28;20491;-67
2022/01/18 11:17:08;;;;;;;13.63;6.03;;;11.10;99.90;;;;;;5015870;28;20555;-66
2022/01/18 11:19:37;;;;;;;12.83;4.97;;;10.80;99.90;;;;;;5011750;28;21093;-69
2022/01/18 11:22:08;;;;;;;11.80;4.90;;;10.90;99.90;;;;;;5015851;28;22944;-67
2022/01/18 11:24:44;;;;;;;6.83;4.27;;;11.10;99.90;;;;;;5019418;28;20479;-67
2022/01/18 11:27:14;;;;;;;10.33;4.40;;;11.00;99.90;;;;;;5015348;28;20590;-70
2022/01/18 11:29:43;;;;;;;8.00;3.87;;;11.10;99.90;;;;;;5021029;28;20465;-68
2022/01/18 11:32:11;;;;;;;16.33;4.53;;;11.30;99.90;;;;;;5019283;28;20555;-67
2022/01/18 11:34:50;;;;;;;9.17;4.00;;;11.30;99.90;;;;;;5017191;28;20509;-67
2022/01/18 11:37:23;;;;;;;10.77;5.80;;;11.40;99.90;;;;;;5013889;28;20462;-67
2022/01/18 11:40:00;;;;;;;9.63;5.00;;;11.20;99.90;;;;;;5017395;28;20471;-69
2022/01/18 11:42:46;;;;;;;10.00;5.27;;;11.00;99.90;;;;;;5011405;28;20575;-67
2022/01/18 11:45:39;;;;;;;7.93;4.70;;;10.70;99.90;;;;;;5012572;28;20548;-67
2022/01/18 11:48:12;;;;;;;10.27;4.47;;;10.40;99.90;;;;;;5010770;28;20494;-67
2022/01/18 11:50:43;;;;;;;5.67;3.80;;;10.30;99.90;;;;;;5019481;28;20434;-68
2022/01/18 11:53:25;;;;;;;11.53;5.97;;;10.40;99.90;;;;;;5012184;28;20478;-66
2022/01/18 11:55:56;;;;;;;7.60;4.57;;;10.90;99.90;;;;;;5013884;28;21734;-67
2022/01/18 11:58:24;;;;;;;15.37;5.60;;;11.40;99.90;;;;;;5010450;28;20456;-66
2022/01/18 12:00:56;;;;;;;4.93;2.50;;;12.00;99.90;;;;;;5009642;28;20459;-65
2022/01/18 12:03:26;;;;;;;8.20;4.23;;;12.00;99.90;;;;;;5018749;28;20479;-67
2022/01/18 12:05:54;;;;;;;11.00;5.50;;;11.80;99.90;;;;;;5012784;28;20451;-68
2022/01/18 12:08:32;;;;;;;10.47;4.20;;;11.30;99.90;;;;;;5018351;28;20483;-68
2022/01/18 12:11:02;;;;;;;16.10;6.00;;;11.20;99.90;;;;;;5011741;28;20467;-68
2022/01/18 12:13:44;;;;;;;8.67;5.17;;;11.30;99.90;;;;;;5021693;28;20487;-67
2022/01/18 12:16:29;;;;;;;8.83;4.10;;;11.40;99.90;;;;;;5014024;28;21293;-68
2022/01/18 12:19:02;;;;;;;7.93;3.97;;;11.30;99.90;;;;;;5013254;28;20438;-66
2022/01/18 12:21:30;;;;;;;7.20;4.43;;;11.00;99.90;;;;;;5022955;28;20596;-68
2022/01/18 12:24:12;;;;;;;11.47;6.63;;;10.70;99.90;;;;;;5009804;28;22669;-67
2022/01/18 12:26:44;;;;;;;11.67;3.93;;;10.50;99.90;;;;;;5020033;28;21281;-67
2022/01/18 12:35:22;;;;;;;14.23;5.97;;;10.70;99.90;;;;;;5011241;28;20468;-65
2022/01/18 12:37:49;;;;;;;12.83;5.83;;;11.70;99.90;;;;;;5009487;28;20464;-66
2022/01/18 12:40:34;;;;;;;14.93;4.60;;;12.80;99.90;;;;;;5015140;28;20471;-67
2022/01/18 12:46:00;;;;;;;7.30;3.97;;;12.70;99.90;;;;;;5007808;28;20544;-67
2022/01/18 12:48:28;;;;;;;13.70;5.43;;;12.10;99.90;;;;;;5013227;28;22140;-67
2022/01/18 12:50:57;;;;;;;12.80;4.33;;;11.70;99.90;;;;;;5015812;28;20468;-68
2022/01/18 12:53:27;;;;;;;11.50;3.90;;;11.30;99.90;;;;;;5020845;28;20586;-65
2022/01/18 12:55:57;;;;;;;10.03;4.70;;;11.00;99.90;;;;;;5022073;28;20590;-67
2022/01/18 12:58:27;;;;;;;7.30;2.93;;;10.70;99.90;;;;;;5017745;28;20491;-66
2022/01/18 13:00:56;;;;;;;13.00;5.10;;;10.60;99.90;;;;;;5023435;28;20430;-66
2022/01/18 13:03:25;;;;;;;13.83;5.67;;;10.70;99.90;;;;;;5035463;28;20571;-67
2022/01/18 13:05:54;;;;;;;7.60;4.63;;;10.60;99.90;;;;;;5034800;28;20967;-70
2022/01/18 13:08:23;;;;;;;11.77;4.90;;;10.50;99.90;;;;;;5031443;28;20544;-66
2022/01/18 13:10:51;;;;;;;16.43;7.40;;;10.60;99.90;;;;;;5014625;28;20487;-67
2022/01/18 13:13:22;;;;;;;11.63;5.37;;;10.70;99.90;;;;;;5015820;28;20523;-65
2022/01/18 13:24:58;;;;;;;11.60;5.00;;;10.50;99.90;;;;;;5010921;28;22333;-66
2022/01/18 13:27:33;;;;;;;12.27;6.37;;;10.50;99.90;;;;;;5018522;28;20467;-66
2022/01/18 13:30:13;;;;;;;6.07;3.90;;;10.60;99.90;;;;;;5020245;28;20459;-65
2022/01/18 13:32:41;;;;;;;8.33;4.57;;;10.60;99.90;;;;;;5018176;28;20467;-68
2022/01/18 13:35:09;;;;;;;13.40;5.80;;;10.50;99.90;;;;;;5011357;28;22261;-66
2022/01/18 13:37:38;;;;;;;8.00;5.43;;;10.50;99.90;;;;;;5008812;28;20548;-67
2022/01/18 13:40:07;;;;;;;11.50;5.97;;;10.50;99.90;;;;;;5007032;28;21040;-66
2022/01/18 13:42:37;;;;;;;11.43;4.67;;;10.50;99.90;;;;;;5017659;28;20467;-66
2022/01/18 13:45:09;;;;;;;13.17;4.57;;;10.40;99.90;;;;;;5018613;28;20578;-66
2022/01/18 13:47:47;;;;;;;8.70;3.30;;;10.20;99.90;;;;;;5021555;28;20459;-66
2022/01/18 13:50:33;;;;;;;7.73;3.70;;;10.20;99.90;;;;;;5016345;28;21384;-66
2022/01/18 13:53:02;;;;;;;9.30;4.03;;;10.30;99.90;;;;;;5013360;28;20438;-66
2022/01/18 13:55:30;;;;;;;10.20;5.17;;;10.40;99.90;;;;;;5019102;28;20475;-67
2022/01/18 13:57:58;;;;;;;5.60;3.00;;;10.50;99.90;;;;;;5018914;28;20978;-66
2022/01/18 14:00:26;;;;;;;7.40;3.50;;;10.70;99.90;;;;;;5021405;28;20589;-67
2022/01/18 14:02:56;;;;;;;13.33;5.73;;;10.80;99.90;;;;;;5019852;28;20546;-66
2022/01/18 14:05:24;;;;;;;11.53;3.20;;;10.80;99.90;;;;;;4999729;28;20471;-65
2022/01/18 14:08:02;;;;;;;8.63;3.87;;;10.70;99.90;;;;;;5015322;28;20588;-66
2022/01/18 14:10:29;;;;;;;9.50;4.63;;;10.60;99.90;;;;;;5010555;28;20474;-66